Flight Track Log - Related Links

Times and Time Zones

All times are in EDT time to prevent confusion due to time zone crossing. See the ASQ5685 flight status page for this flight to view local times or setup timezone preferences in your user account.

Time Position Orientation Groundspeed Altitude Reporting Facility
EDT Latitude Longitude Course Direction KTS MPH feet Rate Location/Type
Wed 09:21:18 AM 33.6333 -84.4667 48° Northeast 173 199 2,400  Level Atlanta TRACON
Wed 09:22:18 AM 33.6000 -84.5333 239° Southwest 239 275 3,900 1,800 Climbing Atlanta TRACON
Wed 09:23:18 AM 33.5500 -84.5833 220° Southwest 279 321 6,000 2,150 Climbing Atlanta TRACON
Wed 09:24:00 AM 33.7594 -83.9622 54° Northeast  Level FlightAware Approximate
Wed 09:24:18 AM 33.4667 -84.5667 171° South 295 339 8,200  Level Atlanta TRACON
Wed 09:25:00 AM 33.8184 -83.8640 54° Northeast  Level FlightAware Approximate
Wed 09:26:00 AM 33.8788 -83.7671 48° Northeast  Level FlightAware Approximate
Wed 09:26:44 AM 33.4558 -84.3278 93° East 308 354 11,400  Level Atlanta Center
Wed 09:27:44 AM 33.5103 -84.2356 55° Northeast 331 381 12,400 1,050 Climbing Atlanta Center
Wed 09:28:44 AM 33.6042 -84.1811 26° Northeast 342 394 13,500 1,050 Climbing Atlanta Center
Wed 09:29:44 AM 33.6983 -84.1186 29° Northeast 363 418 14,500 1,000 Climbing Atlanta Center
Wed 09:30:44 AM 33.7692 -84.0264 47° Northeast 369 425 15,500 1,000 Climbing Atlanta Center
Wed 09:31:44 AM 33.8256 -83.9139 59° Northeast 377 434 16,500 1,100 Climbing Atlanta Center
Wed 09:32:44 AM 33.8839 -83.8011 58° Northeast 388 447 17,700 1,000 Climbing Atlanta Center
Wed 09:33:44 AM 33.9442 -83.6933 56° Northeast 388 447 18,500 800 Climbing Atlanta Center
Wed 09:34:44 AM 34.0106 -83.5878 53° Northeast 396 456 19,300 800 Climbing Atlanta Center
Wed 09:35:44 AM 34.0769 -83.4819 53° Northeast 396 456 20,100 700 Climbing Atlanta Center
Wed 09:36:44 AM 34.1453 -83.3761 52° Northeast 396 456 20,700 600 Climbing Atlanta Center
Wed 09:37:44 AM 34.2092 -83.2653 55° Northeast 396 456 21,300 1,050 Climbing Atlanta Center
Wed 09:38:44 AM 34.2775 -83.1589 52° Northeast 396 456 22,800 1,450 Climbing Atlanta Center
Wed 09:39:44 AM 34.3392 -83.0553 54° Northeast 385 443 24,200 1,050 Climbing Atlanta Center
Wed 09:40:44 AM 34.3969 -82.9664 52° Northeast 379 436 24,900 600 Climbing Atlanta Center
Wed 09:41:44 AM 34.4647 -82.8597 52° Northeast 385 443 25,400 600 Climbing Atlanta Center
Wed 09:42:44 AM 34.5264 -82.7556 54° Northeast 385 443 26,100 650 Climbing Atlanta Center
Wed 09:43:44 AM 34.5942 -82.6483 52° Northeast 392 451 26,700 550 Climbing Atlanta Center
Wed 09:44:44 AM 34.6556 -82.5539 52° Northeast 392 451 27,200 600 Climbing Atlanta Center
Wed 09:45:44 AM 34.7353 -82.4211 54° Northeast 392 451 27,900 650 Climbing Atlanta Center
Wed 09:46:44 AM 34.8006 -82.3136 53° Northeast 397 457 28,500 550 Climbing Atlanta Center
Wed 09:47:44 AM 34.8678 -82.2033 53° Northeast 397 457 29,000 450 Climbing Atlanta Center
Wed 09:48:44 AM 34.9289 -82.1031 53° Northeast 392 451 29,400 500 Climbing Atlanta Center
Wed 09:49:44 AM 34.9961 -81.9953 53° Northeast 392 451 30,000 550 Climbing Atlanta Center
Wed 09:50:44 AM 35.0608 -81.8819 55° Northeast 397 457 30,500 500 Climbing Atlanta Center
Wed 09:51:44 AM 35.1214 -81.7661 57° Northeast 402 463 31,000 250 Climbing Atlanta Center
Wed 09:52:44 AM 35.1817 -81.6475 58° Northeast 402 463 31,000  Level Atlanta Center
Wed 09:53:44 AM 35.2419 -81.5339 57° Northeast 402 463 31,000  Level Atlanta Center
Wed 09:54:44 AM 35.3042 -81.4150 57° Northeast 402 463 31,000  Level Atlanta Center
Wed 09:55:44 AM 35.3664 -81.2958 57° Northeast 408 470 31,000  Level Atlanta Center
Wed 09:56:44 AM 35.4261 -81.1767 58° Northeast 413 475 31,000  Level Atlanta Center
Wed 09:57:44 AM 35.4900 -81.0519 58° Northeast 425 489 31,000  Level Atlanta Center
Wed 09:58:44 AM 35.5539 -80.9322 57° Northeast 425 489 31,000  Level Atlanta Center
Wed 09:59:44 AM 35.6153 -80.8150 57° Northeast 414 476 31,000  Level Atlanta Center
Wed 10:00:44 AM 35.6789 -80.6922 57° Northeast 414 476 31,000  Level Atlanta Center
Wed 10:01:44 AM 35.7461 -80.5617 58° Northeast 419 482 31,000  Level Atlanta Center
Wed 10:02:44 AM 35.8094 -80.4386 58° Northeast 419 482 31,000  Level Atlanta Center
Wed 10:03:44 AM 35.8706 -80.3181 58° Northeast 419 482 31,000  Level Atlanta Center
Wed 10:05:43 AM 35.9947 -80.0822 57° Northeast 433 498 31,000  Level Washington Center
Wed 10:06:44 AM 36.0553 -79.9650 57° Northeast 414 476 31,000  Level Washington Center
Wed 10:07:42 AM 36.1242 -79.8453 55° Northeast 414 476 31,000  Level Washington Center
Wed 10:08:42 AM 36.1844 -79.7353 56° Northeast 414 476 31,000 -198 Level Washington Center
Wed 10:09:43 AM 36.2578 -79.6053 55° Northeast 414 476 30,600 -443 Descending Washington Center
Wed 10:10:44 AM 36.3156 -79.5000 56° Northeast 415 478 30,100 -756 Descending Washington Center
Wed 10:11:42 AM 36.3772 -79.3947 54° Northeast 409 471 29,100 -1,109 Descending Washington Center
Wed 10:12:43 AM 36.4483 -79.2586 57° Northeast 421 484 27,900 -1,082 Descending Washington Center
Wed 10:13:44 AM 36.5144 -79.1428 55° Northeast 421 484 26,900 -1,059 Descending Washington Center
Wed 10:14:42 AM 36.5847 -79.0244 53° Northeast 399 459 25,800 -1,068 Descending Washington Center
Wed 10:15:42 AM 36.6461 -78.9133 55° Northeast 393 452 24,800 -893 Descending Washington Center
Wed 10:16:43 AM 36.6989 -78.8144 56° Northeast 388 447 24,000 -393 Descending Washington Center
Wed 10:17:44 AM 36.7647 -78.6928 56° Northeast 378 435 24,000  Level Washington Center
Wed 10:18:42 AM 36.8236 -78.5992 52° Northeast 372 428 24,000  Level Washington Center
Wed 10:19:43 AM 36.9072 -78.5089 41° Northeast 377 434 24,000 -50 Level Washington Center
Wed 10:20:43 AM 36.9950 -78.4161 40° Northeast 388 447 23,900 -694 Descending Washington Center
Wed 10:21:44 AM 37.0911 -78.3103 41° Northeast 411 473 22,600 -942 Descending Washington Center
Wed 10:22:44 AM 37.1767 -78.2167 41° Northeast 411 473 22,000 -305 Descending Washington Center
Wed 10:23:42 AM 37.2600 -78.1256 41° Northeast 401 461 22,000  Level Washington Center
Wed 10:24:43 AM 37.3453 -78.0344 40° Northeast 401 461 22,000  Level Washington Center
Wed 10:25:43 AM 37.4286 -77.9378 43° Northeast 396 456 22,000  Level Washington Center
Wed 10:26:43 AM 37.5139 -77.8433 41° Northeast 396 456 22,000 -198 Level Washington Center
Wed 10:27:44 AM 37.6131 -77.7808 27° Northeast 396 456 21,600 -1,240 Descending Washington Center
Wed 10:28:44 AM 37.7164 -77.7208 25° Northeast 396 456 19,500 -2,136 Descending Washington Center
Wed 10:29:42 AM 37.8175 -77.6606 25° Northeast 396 456 17,400 -2,118 Descending Washington Center
Wed 10:30:43 AM 37.9144 -77.6028 25° Northeast 396 456 15,300 -1,934 Descending Washington Center
Wed 10:31:43 AM 38.0008 -77.5522 25° Northeast 371 427 13,500 -1,686 Descending Washington Center
Wed 10:32:44 AM 38.0786 -77.5094 23° Northeast 335 386 11,900 -1,513 Descending Washington Center
Wed 10:33:42 AM 38.1481 -77.4692 25° Northeast 304 350 10,500 -958 Descending Washington Center
Wed 10:34:43 AM 38.2256 -77.4550 North 290 334 10,000 -248 Descending Washington Center
Wed 10:35:43 AM 38.3028 -77.4517 North 277 319 10,000 -600 Level Washington Center
Wed 10:36:43 AM 38.3800 -77.4511 360° North 272 313 8,800 -1,412 Descending Washington Center
Wed 10:37:42 AM 38.4569 -77.4475 North 272 313 7,200 -1,700 Descending Washington Center
Wed 10:38:43 AM 38.5300 -77.4469 360° North 272 313 5,400 -1,537 Descending Washington Center
Wed 10:39:43 AM 38.6011 -77.4458 North 266 306 4,100 -1,257 Descending Washington Center
Wed 10:40:28 AM 38.6667 -77.4333 North 246 283 3,200 -571 Descending Potomac TRACON
Wed 10:41:28 AM 38.7167 -77.4333 360° North 194 223 3,100 -50 Descending Potomac TRACON
Wed 10:42:28 AM 38.7833 -77.4333 360° North 198 228 3,100 -417 Level Potomac TRACON
Wed 10:43:23 AM 38.8333 -77.4333 360° North 196 226 2,300 -873 Descending Potomac TRACON

Login

Don't have an account? Register now (free) for customized features, flight alerts, and more!